Whiting Fld NAS, FL

2:33 PM CDT on September 16, 2014 (GMT -0500)
Whiting Field Naval Air Station (South) | Change Station
CLOSE
Current Station
Airport
Location: Milton,
Elevation: 177 ft
Nearby Weather Stations

Elev 177 ft 30.70 °N, 87.02 °W | Updated 15 minutes ago

Thunderstorm
Thunderstorm
77 °F
Feels Like 77 °F
N
13
Wind Variable Wind from SSE

Today
High -- | Low -- °F
--% Chance of Precip.
Yesterday
High -- | Low -- °F
Precip. -- in
6:32 AM 6:52 PM
Last Quarter, 43% visible
Pressure 30.01 in
Visibility 2.0 miles
Clouds Mostly Cloudy 700 ft
Mostly Cloudy 1900 ft
Overcast 3800 ft
Dew Point 74 °F
Humidity 90%
Rainfall 0.05 in
Snow Depth Not available.
UV 3 out of 12
Pollen 6.80 out of 12
Ozone Good
PM2.5 Good
Flu Activity Not available.
SPECI KNDZ 161918Z 16011KT 2SM +TSRA BR BKN007 BKN019 OVC038CB 25/23 A3001 RMK AO2 RAB03 VIS E 1 OCNL LTGICCG OHD TS OHD MOV S T1 SET P0014 T02500233 $

More Conditions Fewer Conditions

Pressure 30.01 in
Visibility 2.0 miles
Clouds Mostly Cloudy 700 ft
Mostly Cloudy 1900 ft
Overcast 3800 ft
Dew Point 74 °F
Humidity 90%
Rainfall 0.05 in
Snow Depth Not available.
UV 3 out of 12
Pollen 6.80 out of 12
Ozone Good
PM2.5 Good
Flu Activity Not available.
SPECI KNDZ 161918Z 16011KT 2SM +TSRA BR BKN007 BKN019 OVC038CB 25/23 A3001 RMK AO2 RAB03 VIS E 1 OCNL LTGICCG OHD TS OHD MOV S T1 SET P0014 T02500233 $

More Conditions Fewer Conditions

10-Day Weather Forecast

Almanac

Astronomy

Sep. 16, 2014 Rise Set
Actual Time 6:32 AM CDT 6:52 PM CDT
Civil Twilight 6:08 AM CDT 7:16 PM CDT
Nautical Twilight 5:40 AM CDT 7:44 PM CDT
Astronomical Twilight 5:12 AM CDT 8:13 PM CDT
Moon No Moon Rise 1:58 PM CDT
Length of Visible Light 13h 07m
Length of Day
12h 19m
Tomorrow will be 1m 51s shorter.
Last Quarter, 43% of the Moon is Illuminated
Today
Last Quarter
Sep 24
New
Oct 1
First Quarter
Oct 8
Full
Oct 15
Last Quarter

Today's Extremes

State Highs State Lows

Community

WunderPhotos

Upload Photos

1,753,860 photos uploaded!

Nearby

Air Quality

  Air Quality AQ Index Pollutant
Yesterday Good
OZONE
Yesterday Good
PM2.5
Current Good
PM2.5
Current Good
OZONE
Tuesday Good
OZONE
Tuesday Good
PM2.5

Snow Depth

Station Depth Elevation
No new snow has been reported.

Earthquake Activity

City Distance Mag. Time & Date
No recent earthquake activity has been reported nearby.
Minimum magnitude displayed is 2.5.

Coastal Water Temperatures

Place Temperature
No Stations Reporting

Nearby Weather Stations